Amboy, California
Current Conditions -  °F | °C
As of 7:56 AM on Friday 31 Oct 2014 (Local Time) from KNXP Reporting Station
Haze Haze  
Wind Chill: 56°   Ceiling: Unl
Heat Index: 56°   Visibility: 6mi
Dew Point: 33°   Wind: 0mph
Humidity: 42%   Direction: NA
Pressure: 30"   Gusts: NA
Location:  34.56°N, 115.75°W
Report Text: KNXP 311456Z 00000KT 6SM HZ CLR 13/01 A3000 RMK AO2 SLP131 T01330006 51004 $
Loading
Personal Weather Stations






























Interactive Weather Map
Tropical Storm Tracking
New forecast layout! Learn more

10-Day Weather Forecast

Advertisements
Track Severe Weather on mobile